Lincoln Airport
KLNK : rendu visible

Aérodrome :











RETROUVEZ-NOUS SUR...

 
LOGIN :

S'inscrire | Disclaimer

   EN    FR    IT 

 









Légende :    VFR   VFR Marginal   IFR   IFR Intensif   IFR Très Intensif
Visi : 
Plafond : 
>= 8 km
>= 3000ft
5 à 8 km
1000 à 3000 ft
1500m à 5 km
500 à 1000 ft
800 à 1500m
200 à 500 ft
< 800m
< 200 ft
Symboles :   Orages  Brouillard  Fortes neiges  Fortes précipitations  Vent > 20 kt






- Altitude de l'aérodrome : 1219 ft
- Code IATA : LNK


KLNK - Lincoln

DERNIER METAR :
  • 191254Z 30004KT 10SM CLR 09/07 A2981 RMK AO2 SLP090 T00940067 $

METARs EXPIRÉS :
  • 191154Z 00000KT 10SM FEW070 10/07 A2979 RMK AO2 SLP084 60011 70011 T01000072 10161 20094 51019 $
  • 191054Z AUTO 31006KT 10SM OVC070 11/08 A2978 RMK AO2 SLP079 T01110078 $

TAF KLNK
Valide du 19 à 11h jusqu'au 20 à 12h UTC


191127Z 1911/2012 33006KT P6SM SKC
FM192100 VRB04KT P6SM SKC
FM200200 17005KT P6SM BKN250



MET'MAP, la Météo Aéronautique d'un coup d'oeil ! - Copyright ORBIFLY Décembre 2007 - Disclaimer

ORBIFLY MET'MAP TEAM :

Programmation & Développement : Alexandra Zaïnal
Conception & Développement : Baudouin d'Aumeries
Co-Programmation & Développement : Marc-Olivier Méhu
Soutien technique & logistique : Manuel Goepfert

Contact : metmap@orbifly.com




SOURCES & CREDITS :

   NOAA       Earth
Advisory